Time;durP1;ratioP1;P1;durP2;ratioP2;P2;SDS_P1;SDS_P2;PMS_P1;PMS_P2;Temp;Humidity;BMP_temperature;BMP_pressure;BME280_temperature;BME280_humidity;BME280_pressure;Samples;Min_cycle;Max_cycle;Signal;HPM_P1;HPM_P2
2021/04/05 00:02:20;;;;;;;36.80;16.55;;;6.00;99.90;;;;;;5068621;28;20032;-73
2021/04/05 00:04:46;;;;;;;37.78;16.48;;;6.00;99.90;;;;;;5067942;28;20111;-71
2021/04/05 00:07:12;;;;;;;38.35;16.48;;;5.90;99.90;;;;;;5068422;28;20508;-70
2021/04/05 00:09:39;;;;;;;42.55;16.05;;;5.90;99.90;;;;;;5064602;28;20522;-72
2021/04/05 00:12:07;;;;;;;35.35;15.95;;;5.90;99.90;;;;;;5068192;28;20572;-73
2021/04/05 00:14:35;;;;;;;40.08;16.60;;;5.90;99.90;;;;;;5064136;28;20099;-70
2021/04/05 00:17:01;;;;;;;33.30;16.67;;;5.80;99.90;;;;;;5069312;28;20020;-72
2021/04/05 00:19:27;;;;;;;39.35;16.60;;;5.80;99.90;;;;;;5069165;28;20369;-72
2021/04/05 00:21:53;;;;;;;41.25;16.67;;;5.80;99.90;;;;;;5067370;28;20111;-71
2021/04/05 00:24:19;;;;;;;46.15;17.20;;;5.80;99.90;;;;;;5067997;28;20035;-73
2021/04/05 00:26:44;;;;;;;45.92;16.85;;;5.80;99.90;;;;;;5066980;28;20028;-73
2021/04/05 00:29:10;;;;;;;41.22;17.63;;;5.70;99.90;;;;;;5069950;28;20071;-70
2021/04/05 00:31:36;;;;;;;37.38;16.50;;;5.70;99.90;;;;;;5071128;28;20471;-72
2021/04/05 00:34:02;;;;;;;40.38;17.80;;;5.70;99.90;;;;;;5082930;28;20009;-72
2021/04/05 00:36:29;;;;;;;40.90;17.15;;;5.80;99.90;;;;;;5092449;28;20035;-73
2021/04/05 00:38:54;;;;;;;40.22;15.85;;;5.80;99.90;;;;;;5092805;28;20029;-75
2021/04/05 00:41:22;;;;;;;42.70;16.98;;;5.80;99.90;;;;;;5092222;28;20031;-73
2021/04/05 00:43:48;;;;;;;41.28;17.20;;;5.80;99.90;;;;;;5092022;28;20070;-71
2021/04/05 00:46:22;;;;;;;39.05;17.38;;;5.80;99.90;;;;;;5087490;28;20140;-70
2021/04/05 00:48:49;;;;;;;41.28;18.50;;;5.80;99.90;;;;;;5086403;28;20020;-72
2021/04/05 00:51:21;;;;;;;44.95;18.48;;;5.80;99.90;;;;;;5086047;28;20040;-72
2021/04/05 00:53:47;;;;;;;38.33;17.27;;;5.80;99.90;;;;;;5091686;28;20021;-71
2021/04/05 00:56:16;;;;;;;47.67;18.15;;;5.80;99.90;;;;;;5092020;28;20031;-71
2021/04/05 00:58:42;;;;;;;43.63;18.95;;;5.80;99.90;;;;;;5092040;28;20565;-72
2021/04/05 01:01:11;;;;;;;41.13;18.10;;;5.80;99.90;;;;;;5092823;28;20008;-72
2021/04/05 01:03:42;;;;;;;39.25;18.67;;;5.80;99.90;;;;;;5088522;28;20024;-72
2021/04/05 01:06:27;;;;;;;44.47;19.95;;;5.80;99.90;;;;;;5080638;28;20043;-73
2021/04/05 01:08:54;;;;;;;44.78;19.83;;;5.80;99.90;;;;;;5087204;28;20017;-71
2021/04/05 01:11:22;;;;;;;38.60;18.88;;;5.80;99.90;;;;;;5090008;28;20097;-72
2021/04/05 01:13:49;;;;;;;46.17;19.13;;;5.80;99.90;;;;;;5089061;28;20028;-71
2021/04/05 01:16:16;;;;;;;46.97;19.10;;;5.80;99.90;;;;;;5090716;28;20039;-72
2021/04/05 01:18:42;;;;;;;45.25;19.83;;;5.80;99.90;;;;;;5091861;28;20096;-70
2021/04/05 01:21:09;;;;;;;55.42;19.95;;;5.80;99.90;;;;;;5093821;28;20021;-72
2021/04/05 01:23:35;;;;;;;49.65;20.02;;;5.90;99.90;;;;;;5096269;28;20078;-73
2021/04/05 01:26:01;;;;;;;43.95;20.67;;;5.90;99.90;;;;;;5093756;28;20024;-71
2021/04/05 01:28:27;;;;;;;43.75;19.73;;;5.90;99.90;;;;;;5095683;28;20028;-73
2021/04/05 01:30:56;;;;;;;49.08;20.40;;;5.90;99.90;;;;;;5091535;28;20028;-72
2021/04/05 01:33:24;;;;;;;48.95;21.75;;;5.90;99.90;;;;;;5076039;28;20305;-70
2021/04/05 01:36:09;;;;;;;56.00;22.33;;;6.00;99.90;;;;;;5090279;28;20092;-72
2021/04/05 01:38:45;;;;;;;61.28;21.98;;;6.10;99.90;;;;;;5095012;28;20047;-70
2021/04/05 01:41:19;;;;;;;50.55;20.85;;;6.20;99.90;;;;;;5090301;28;20031;-71
2021/04/05 01:43:44;;;;;;;61.13;22.92;;;6.20;99.90;;;;;;5080772;28;20021;-71
2021/04/05 01:46:17;;;;;;;62.53;21.63;;;6.30;99.90;;;;;;5095569;28;20095;-72
2021/04/05 01:48:43;;;;;;;66.82;22.92;;;6.30;99.90;;;;;;5093976;28;20024;-71
2021/04/05 01:51:15;;;;;;;52.47;22.52;;;6.40;99.90;;;;;;5093020;28;20162;-72
2021/04/05 01:53:42;;;;;;;46.30;22.30;;;6.40;99.90;;;;;;5091464;28;20055;-71
2021/04/05 01:56:11;;;;;;;60.45;24.10;;;6.50;99.90;;;;;;5089095;28;20041;-70
2021/04/05 01:58:39;;;;;;;55.97;23.60;;;6.50;99.90;;;;;;5093904;28;20027;-71
2021/04/05 02:01:06;;;;;;;50.58;23.33;;;6.60;99.90;;;;;;5085344;28;20020;-70
2021/04/05 02:03:32;;;;;;;60.10;23.33;;;6.70;99.90;;;;;;5094995;28;20064;-72
2021/04/05 02:06:08;;;;;;;64.57;24.48;;;6.70;99.90;;;;;;5094958;28;20040;-73
2021/04/05 02:08:37;;;;;;;68.25;24.42;;;6.70;99.90;;;;;;5096329;28;20028;-72
2021/04/05 02:11:33;;;;;;;52.33;25.02;;;6.70;99.90;;;;;;5094912;28;20020;-71
2021/04/05 02:13:59;;;;;;;63.53;26.77;;;6.70;99.90;;;;;;5087000;28;20048;-71
2021/04/05 02:16:27;;;;;;;57.13;24.88;;;6.70;99.90;;;;;;5094721;28;20055;-70
2021/04/05 02:18:54;;;;;;;65.50;25.73;;;6.70;99.90;;;;;;5095123;28;20024;-72
2021/04/05 02:21:22;;;;;;;66.72;25.80;;;6.70;99.90;;;;;;5094490;28;20043;-72
2021/04/05 02:23:53;;;;;;;58.00;25.00;;;6.70;99.90;;;;;;5095184;28;20032;-71
2021/04/05 02:26:28;;;;;;;74.90;24.20;;;6.70;99.90;;;;;;5093840;28;20017;-72
2021/04/05 02:29:00;;;;;;;63.83;24.90;;;6.80;99.90;;;;;;5095031;28;20025;-71
2021/04/05 02:31:29;;;;;;;65.37;24.67;;;6.70;99.90;;;;;;5092072;28;20025;-72
2021/04/05 02:33:58;;;;;;;49.88;26.02;;;6.80;99.90;;;;;;5092600;28;20018;-72
2021/04/05 02:36:29;;;;;;;56.33;25.02;;;6.80;99.90;;;;;;5082770;28;20020;-71
2021/04/05 02:38:56;;;;;;;57.15;22.33;;;6.80;99.90;;;;;;5092550;28;20015;-71
2021/04/05 02:41:24;;;;;;;63.50;25.50;;;6.80;99.90;;;;;;5088104;28;20013;-72
2021/04/05 02:43:52;;;;;;;70.30;23.80;;;6.80;99.90;;;;;;5092539;28;20041;-72
2021/04/05 02:46:23;;;;;;;63.08;25.25;;;6.80;99.90;;;;;;5093729;28;20107;-72
2021/04/05 02:48:50;;;;;;;66.50;24.42;;;6.80;99.90;;;;;;5092645;28;20523;-71
2021/04/05 02:51:17;;;;;;;67.63;22.90;;;6.80;99.90;;;;;;5092299;28;20066;-73
2021/04/05 02:53:46;;;;;;;64.45;24.02;;;6.80;99.90;;;;;;5089229;28;20542;-71
2021/04/05 02:56:13;;;;;;;62.40;23.95;;;6.90;99.90;;;;;;5074940;28;20023;-71
2021/04/05 02:58:44;;;;;;;63.60;23.85;;;6.90;99.90;;;;;;5083948;28;20028;-72
2021/04/05 03:01:10;;;;;;;51.83;22.10;;;6.90;99.90;;;;;;5063925;28;20103;-72
2021/04/05 03:03:41;;;;;;;61.35;21.45;;;7.00;99.90;;;;;;5071182;28;20094;-72
2021/04/05 03:06:08;;;;;;;64.07;21.80;;;7.10;99.90;;;;;;5068525;28;20508;-72
2021/04/05 03:08:34;;;;;;;60.17;21.02;;;7.10;99.90;;;;;;5073590;28;20040;-73
2021/04/05 03:11:03;;;;;;;56.08;20.92;;;7.10;99.90;;;;;;5076901;28;20033;-72
2021/04/05 03:13:31;;;;;;;48.90;20.20;;;7.20;99.90;;;;;;5070622;28;20739;-73
2021/04/05 03:15:57;;;;;;;52.83;20.35;;;7.20;99.90;;;;;;5069075;28;20119;-70
2021/04/05 03:18:24;;;;;;;60.58;19.30;;;7.30;99.90;;;;;;5071485;28;20016;-73
2021/04/05 03:20:50;;;;;;;59.13;19.10;;;7.30;99.90;;;;;;5069982;28;20059;-71
2021/04/05 03:23:16;;;;;;;41.60;17.65;;;7.40;99.90;;;;;;5068047;28;20059;-71
2021/04/05 03:25:42;;;;;;;37.83;15.93;;;7.50;99.90;;;;;;5062697;28;20554;-70
2021/04/05 03:28:08;;;;;;;39.47;16.55;;;7.60;99.90;;;;;;5068036;28;20434;-71
2021/04/05 03:30:40;;;;;;;35.28;16.08;;;7.60;99.90;;;;;;5067937;28;20033;-71
2021/04/05 03:33:12;;;;;;;41.00;15.32;;;7.70;99.90;;;;;;5070385;28;20471;-72
2021/04/05 03:35:42;;;;;;;37.55;14.48;;;7.80;99.90;;;;;;5068171;28;20078;-72
2021/04/05 03:38:10;;;;;;;36.83;15.07;;;7.90;99.90;;;;;;5069186;28;20079;-72
2021/04/05 03:40:38;;;;;;;38.35;15.43;;;8.00;99.90;;;;;;5063827;28;20036;-73
2021/04/05 03:43:15;;;;;;;42.13;16.55;;;8.00;99.90;;;;;;5060062;28;20498;-72
2021/04/05 03:45:46;;;;;;;42.38;15.90;;;8.00;99.90;;;;;;5064104;28;20078;-73
2021/04/05 03:48:32;;;;;;;38.50;16.70;;;7.90;99.90;;;;;;5068788;28;20016;-71
2021/04/05 03:51:07;;;;;;;45.17;16.70;;;7.90;99.90;;;;;;5068114;28;20028;-72
2021/04/05 03:53:41;;;;;;;39.25;16.90;;;7.90;99.90;;;;;;5066915;28;20071;-72
2021/04/05 03:56:12;;;;;;;37.65;16.67;;;8.00;99.90;;;;;;5068098;28;20028;-72
2021/04/05 03:58:43;;;;;;;52.22;17.13;;;7.90;99.90;;;;;;5054584;28;20763;-72
2021/04/05 04:01:11;;;;;;;31.50;15.75;;;7.90;99.90;;;;;;5068383;28;20021;-71
2021/04/05 04:04:02;;;;;;;39.58;16.92;;;8.00;99.90;;;;;;5068885;28;20034;-71
2021/04/05 04:06:44;;;;;;;41.67;17.42;;;8.00;99.90;;;;;;5066545;28;20089;-70
2021/04/05 04:09:10;;;;;;;41.47;17.02;;;8.00;99.90;;;;;;5070393;28;20839;-71
2021/04/05 04:11:38;;;;;;;34.92;14.75;;;8.10;99.90;;;;;;5070274;28;20119;-71
2021/04/05 04:14:07;;;;;;;37.00;14.90;;;8.10;99.90;;;;;;5065935;28;20077;-72
2021/04/05 04:16:34;;;;;;;29.50;14.55;;;8.20;99.90;;;;;;5067765;28;20012;-69
2021/04/05 04:19:03;;;;;;;28.10;12.45;;;8.20;99.90;;;;;;5064422;28;20040;-72
2021/04/05 04:21:30;;;;;;;28.70;13.35;;;8.20;99.90;;;;;;5068382;28;20017;-70
2021/04/05 04:24:00;;;;;;;30.17;12.80;;;8.30;99.90;;;;;;5068060;28;20441;-70
2021/04/05 04:26:26;;;;;;;34.15;12.63;;;8.30;99.90;;;;;;5067595;28;20040;-70
2021/04/05 04:28:52;;;;;;;32.42;13.52;;;8.40;99.90;;;;;;5062210;28;20506;-71
2021/04/05 04:31:21;;;;;;;28.65;13.27;;;8.40;99.90;;;;;;5067230;28;20029;-71
2021/04/05 04:33:48;;;;;;;31.35;12.43;;;8.40;99.90;;;;;;5068347;28;20024;-71
2021/04/05 04:36:21;;;;;;;27.77;12.55;;;8.40;99.90;;;;;;5058965;28;20108;-70
2021/04/05 04:38:47;;;;;;;29.80;12.20;;;8.40;99.90;;;;;;5068233;28;20040;-69
2021/04/05 04:41:22;;;;;;;32.05;13.48;;;8.40;99.90;;;;;;5049794;28;20063;-71
2021/04/05 04:43:53;;;;;;;38.03;13.73;;;8.40;99.90;;;;;;5067089;28;20142;-70
2021/04/05 04:46:19;;;;;;;27.58;14.40;;;8.40;99.90;;;;;;5066768;28;20032;-71
2021/04/05 04:48:44;;;;;;;26.95;14.15;;;8.30;99.90;;;;;;5063161;28;20028;-70
2021/04/05 04:51:10;;;;;;;36.63;16.42;;;8.30;99.90;;;;;;5065395;28;20423;-71
2021/04/05 04:53:35;;;;;;;34.30;16.00;;;8.30;99.90;;;;;;5059771;28;20029;-71
2021/04/05 04:56:01;;;;;;;30.13;15.07;;;8.30;99.90;;;;;;5059926;28;20043;-70
2021/04/05 04:58:27;;;;;;;30.77;15.60;;;8.30;99.90;;;;;;5071690;28;20024;-72
2021/04/05 05:00:52;;;;;;;25.08;14.63;;;8.30;99.90;;;;;;5070720;28;20035;-70
2021/04/05 05:03:21;;;;;;;35.53;14.60;;;8.30;99.90;;;;;;5071495;28;20104;-69
2021/04/05 05:05:47;;;;;;;33.95;14.32;;;8.30;99.90;;;;;;5071318;28;20086;-70
2021/04/05 05:08:13;;;;;;;33.17;14.50;;;8.30;99.90;;;;;;5063820;28;20050;-70
2021/04/05 05:10:39;;;;;;;30.02;13.10;;;8.30;99.90;;;;;;5070933;28;20439;-71
2021/04/05 05:13:04;;;;;;;34.58;13.88;;;8.30;99.90;;;;;;5070838;28;20028;-70
2021/04/05 05:15:34;;;;;;;28.30;15.05;;;8.30;99.90;;;;;;5070561;28;20099;-71
2021/04/05 05:18:00;;;;;;;28.00;13.38;;;8.30;99.90;;;;;;5071599;28;20021;-69
2021/04/05 05:20:26;;;;;;;29.27;13.35;;;8.30;99.90;;;;;;5071218;28;20021;-71
2021/04/05 05:22:58;;;;;;;30.05;13.05;;;8.40;99.90;;;;;;5069445;28;20040;-69
2021/04/05 05:25:24;;;;;;;25.63;11.93;;;8.40;99.90;;;;;;5069051;28;20120;-70
2021/04/05 05:27:57;;;;;;;25.02;12.40;;;8.40;99.90;;;;;;5070514;28;20040;-71
2021/04/05 05:30:24;;;;;;;31.90;12.15;;;8.40;99.90;;;;;;5072204;28;20127;-71
2021/04/05 05:32:54;;;;;;;35.35;13.88;;;8.40;99.90;;;;;;5073867;28;20063;-68
2021/04/05 05:35:21;;;;;;;10.65;6.65;;;8.30;99.90;;;;;;5065927;28;20024;-69
2021/04/05 05:37:47;;;;;;;16.45;5.05;;;7.70;99.90;;;;;;5073202;28;20020;-66
2021/04/05 05:40:23;;;;;;;11.07;3.45;;;7.30;99.90;;;;;;5070051;28;20024;-69
2021/04/05 05:43:04;;;;;;;7.03;3.60;;;7.00;99.90;;;;;;5056103;28;20025;-68
2021/04/05 05:45:51;;;;;;;9.13;3.80;;;6.80;99.90;;;;;;5070025;28;20035;-69
2021/04/05 05:48:51;;;;;;;11.40;4.63;;;6.70;99.90;;;;;;5069366;28;20035;-68
2021/04/05 05:51:55;;;;;;;18.67;5.53;;;6.60;99.90;;;;;;5068149;28;20044;-68
2021/04/05 05:54:57;;;;;;;10.00;5.85;;;6.50;99.90;;;;;;5066388;28;20044;-69
2021/04/05 05:57:38;;;;;;;16.02;8.38;;;6.30;99.90;;;;;;5067342;28;20113;-70
2021/04/05 06:00:20;;;;;;;13.10;10.05;;;6.20;99.90;;;;;;5069146;28;20017;-70
2021/04/05 06:03:19;;;;;;;12.93;10.17;;;6.10;99.90;;;;;;5068154;28;20074;-68
2021/04/05 06:06:13;;;;;;;19.10;9.90;;;6.10;99.90;;;;;;5066612;28;20078;-70
2021/04/05 06:08:55;;;;;;;18.90;8.60;;;6.00;99.90;;;;;;5066395;28;20024;-68
2021/04/05 06:11:51;;;;;;;16.13;9.10;;;6.00;99.90;;;;;;5070299;28;20054;-69
2021/04/05 06:14:40;;;;;;;20.02;8.90;;;5.90;99.90;;;;;;5070537;28;20063;-71
2021/04/05 06:17:09;;;;;;;20.75;8.75;;;5.90;99.90;;;;;;5064749;28;20761;-71
2021/04/05 06:19:48;;;;;;;10.85;7.57;;;5.80;99.90;;;;;;5069233;28;20056;-70
2021/04/05 06:22:51;;;;;;;9.80;7.63;;;5.80;99.90;;;;;;5068148;28;20024;-72
2021/04/05 06:25:31;;;;;;;16.15;7.63;;;5.80;99.90;;;;;;5059715;28;20040;-68
2021/04/05 06:28:22;;;;;;;14.70;7.20;;;5.80;99.90;;;;;;5063185;28;20013;-69
2021/04/05 06:31:05;;;;;;;13.18;5.32;;;5.80;99.90;;;;;;5066678;28;20059;-67
2021/04/05 06:33:33;;;;;;;9.15;5.20;;;5.80;99.90;;;;;;5069175;28;20091;-70
2021/04/05 06:36:36;;;;;;;7.97;3.83;;;5.80;99.90;;;;;;5069334;28;20009;-70
2021/04/05 06:39:33;;;;;;;15.48;4.63;;;5.80;99.90;;;;;;5070479;28;20495;-70
2021/04/05 06:42:09;;;;;;;15.93;4.55;;;5.80;99.90;;;;;;5066775;28;20128;-67
2021/04/05 06:45:07;;;;;;;14.40;5.25;;;5.80;99.90;;;;;;5070407;28;20047;-72
2021/04/05 06:47:54;;;;;;;22.92;9.88;;;5.90;99.90;;;;;;5085209;28;20029;-70
2021/04/05 06:50:51;;;;;;;15.93;14.60;;;5.70;99.90;;;;;;5072316;28;20024;-70
2021/04/05 06:53:26;;;;;;;19.92;18.20;;;5.10;99.90;;;;;;5072063;28;20036;-73
2021/04/05 06:55:58;;;;;;;20.25;14.65;;;4.80;99.90;;;;;;5075953;28;20021;-71
2021/04/05 06:58:24;;;;;;;12.80;11.52;;;4.80;99.90;;;;;;5073809;28;20090;-72
2021/04/05 07:01:25;;;;;;;10.05;9.07;;;4.50;99.90;;;;;;5070052;28;20027;-70
2021/04/05 07:04:04;;;;;;;16.65;8.70;;;4.20;99.90;;;;;;5047685;28;20076;-72
2021/04/05 07:06:47;;;;;;;19.30;9.27;;;4.10;99.90;;;;;;5069327;28;20056;-76
2021/04/05 07:09:34;;;;;;;16.45;7.22;;;4.20;99.90;;;;;;5067921;28;20027;-75
2021/04/05 07:12:18;;;;;;;28.15;8.32;;;4.20;99.90;;;;;;5069883;28;20040;-73
2021/04/05 07:14:59;;;;;;;24.45;7.85;;;4.30;99.90;;;;;;5071572;28;20480;-72
2021/04/05 07:17:45;;;;;;;28.05;7.88;;;4.30;99.90;;;;;;5078614;28;20063;-74
2021/04/05 07:20:17;;;;;;;17.73;6.38;;;4.30;99.90;;;;;;5077540;28;20021;-77
2021/04/05 07:23:01;;;;;;;18.67;7.18;;;4.40;99.90;;;;;;5073874;28;20021;-75
2021/04/05 07:25:46;;;;;;;28.75;5.05;;;4.50;99.90;;;;;;5071386;28;20024;-72
2021/04/05 07:28:20;;;;;;;22.00;8.18;;;4.50;99.90;;;;;;5071116;28;20039;-72
2021/04/05 07:30:54;;;;;;;27.00;7.82;;;4.00;99.90;;;;;;5069148;28;20150;-71
2021/04/05 07:33:38;;;;;;;36.65;7.05;;;3.70;99.90;;;;;;5070638;28;20035;-75
2021/04/05 07:36:15;;;;;;;17.67;6.15;;;3.70;99.90;;;;;;5066405;28;20020;-74
2021/04/05 07:39:07;;;;;;;32.80;6.53;;;3.80;99.90;;;;;;5067630;28;20089;-73
2021/04/05 07:42:20;;;;;;;33.38;6.72;;;3.80;99.90;;;;;;5071124;28;20028;-73
2021/04/05 07:44:51;;;;;;;23.33;5.82;;;3.90;99.90;;;;;;5064406;28;20116;-72
2021/04/05 07:47:35;;;;;;;25.57;4.87;;;3.90;99.90;;;;;;5064219;28;20033;-72
2021/04/05 07:50:22;;;;;;;23.15;5.45;;;4.00;99.90;;;;;;5057223;28;20039;-71
2021/04/05 07:52:57;;;;;;;26.05;4.32;;;4.10;99.90;;;;;;5058527;28;20752;-73
2021/04/05 07:55:24;;;;;;;24.95;4.15;;;4.10;99.90;;;;;;5066048;28;20029;-75
2021/04/05 07:58:11;;;;;;;12.80;2.90;;;4.10;99.90;;;;;;5070950;28;20023;-75
2021/04/05 08:01:01;;;;;;;20.58;3.13;;;4.10;99.90;;;;;;5066760;28;20537;-71
2021/04/05 08:03:42;;;;;;;18.88;3.88;;;4.20;99.90;;;;;;5065964;28;20047;-71
2021/04/05 08:06:12;;;;;;;19.95;3.45;;;4.20;99.90;;;;;;5051937;28;20021;-73
2021/04/05 08:09:12;;;;;;;21.38;3.50;;;4.30;99.90;;;;;;5065455;28;20021;-76
2021/04/05 08:12:05;;;;;;;13.52;2.42;;;4.40;99.90;;;;;;5068782;28;20041;-73
2021/04/05 08:14:41;;;;;;;;;;;4.40;99.90;;;;;;5065604;28;20369;-76
2021/04/05 08:17:43;;;;;;;12.82;2.35;;;4.50;99.90;;;;;;5050068;28;19958;-73
2021/04/05 08:20:19;;;;;;;13.43;2.50;;;4.60;99.90;;;;;;5070231;28;20354;-74
2021/04/05 08:22:56;;;;;;;22.40;2.63;;;4.60;99.90;;;;;;5069410;28;20257;-74
2021/04/05 08:28:50;;;;;;;24.83;3.53;;;4.70;99.90;;;;;;5048742;28;20032;-72
2021/04/05 08:31:49;;;;;;;8.13;2.53;;;4.70;99.90;;;;;;5064598;28;20135;-75
2021/04/05 08:34:20;;;;;;;13.73;2.78;;;4.20;99.90;;;;;;5064214;28;20392;-70
2021/04/05 08:36:46;;;;;;;23.67;1.80;;;3.90;99.90;;;;;;5063883;28;20025;-72
2021/04/05 08:39:18;;;;;;;9.75;1.70;;;3.90;99.90;;;;;;5068421;28;20035;-71
2021/04/05 08:42:09;;;;;;;11.50;1.83;;;4.00;99.90;;;;;;5067530;28;20044;-73
2021/04/05 08:45:15;;;;;;;7.90;1.95;;;4.20;99.90;;;;;;5067011;28;20044;-71
2021/04/05 08:47:46;;;;;;;6.07;1.77;;;4.40;99.90;;;;;;5066936;28;20025;-73
2021/04/05 08:50:15;;;;;;;6.00;1.58;;;4.50;99.90;;;;;;5067534;28;20082;-72
2021/04/05 08:52:45;;;;;;;12.77;3.05;;;4.60;99.90;;;;;;5069745;28;20499;-72
2021/04/05 08:55:14;;;;;;;14.55;2.00;;;4.60;99.90;;;;;;5071376;28;20024;-70
2021/04/05 08:57:47;;;;;;;8.77;2.20;;;4.70;99.90;;;;;;5072676;28;20016;-72
2021/04/05 09:00:18;;;;;;;10.98;2.47;;;4.80;99.90;;;;;;5079655;28;20024;-71
2021/04/05 09:02:50;;;;;;;21.45;1.83;;;4.80;99.90;;;;;;5077682;28;20021;-72
2021/04/05 09:05:26;;;;;;;15.15;1.73;;;4.90;99.90;;;;;;5080710;28;20032;-73
2021/04/05 09:08:05;;;;;;;15.43;2.13;;;4.80;99.90;;;;;;5084099;28;20112;-71
2021/04/05 09:11:09;;;;;;;10.50;1.95;;;4.40;99.90;;;;;;5078161;28;20031;-71
2021/04/05 09:13:42;;;;;;;15.57;1.98;;;4.20;99.90;;;;;;5077129;28;20039;-71
2021/04/05 09:16:32;;;;;;;24.27;2.33;;;4.10;99.90;;;;;;5069762;28;20028;-71
2021/04/05 09:19:20;;;;;;;7.90;1.55;;;4.20;99.90;;;;;;5064864;28;20047;-71
2021/04/05 09:21:59;;;;;;;5.57;1.05;;;4.20;99.90;;;;;;5065891;28;20035;-70
2021/04/05 09:24:50;;;;;;;6.65;1.63;;;4.30;99.90;;;;;;5068982;28;20020;-73
2021/04/05 09:27:57;;;;;;;11.77;1.30;;;4.20;99.90;;;;;;5067973;28;20131;-74
2021/04/05 09:30:40;;;;;;;6.72;0.88;;;4.20;99.90;;;;;;5065801;28;21841;-70
2021/04/05 09:33:30;;;;;;;8.32;0.93;;;4.20;99.90;;;;;;5072160;28;20078;-70
2021/04/05 09:36:05;;;;;;;30.25;1.63;;;4.30;99.90;;;;;;5066185;28;20051;-71
2021/04/05 09:38:51;;;;;;;8.48;1.45;;;4.40;99.90;;;;;;5066766;28;20016;-72
2021/04/05 09:41:35;;;;;;;11.95;1.45;;;4.40;99.90;;;;;;5066798;28;20017;-73
2021/04/05 09:44:18;;;;;;;8.30;1.38;;;4.50;99.90;;;;;;5069021;28;20728;-71
2021/04/05 09:47:17;;;;;;;15.43;2.95;;;4.40;99.90;;;;;;5069029;28;20407;-74
2021/04/05 09:50:08;;;;;;;7.20;1.58;;;4.50;99.90;;;;;;5067635;28;20383;-72
2021/04/05 09:53:08;;;;;;;13.10;1.75;;;4.70;98.60;;;;;;5068159;28;20028;-70
2021/04/05 09:55:39;;;;;;;8.95;1.55;;;4.80;98.70;;;;;;5068456;28;20055;-73
2021/04/05 09:58:33;;;;;;;6.53;1.60;;;4.70;94.20;;;;;;5082144;28;20017;-73
2021/04/05 10:01:10;;;;;;;14.95;2.67;;;4.70;93.10;;;;;;5073761;28;20525;-71
2021/04/05 10:03:43;;;;;;;12.10;2.00;;;4.70;93.30;;;;;;5072736;28;20036;-73
2021/04/05 10:06:12;;;;;;;18.67;2.45;;;4.60;92.50;;;;;;5069042;28;20042;-70
2021/04/05 10:08:38;;;;;;;17.95;2.08;;;4.70;92.50;;;;;;5070461;28;20073;-72
2021/04/05 10:11:05;;;;;;;9.27;2.03;;;4.70;92.60;;;;;;5069200;28;20024;-72
2021/04/05 10:13:34;;;;;;;14.95;1.77;;;4.70;91.70;;;;;;5069267;28;20029;-70
2021/04/05 10:16:02;;;;;;;9.40;2.17;;;4.70;91.40;;;;;;5061044;28;20125;-70
2021/04/05 10:18:29;;;;;;;10.13;2.03;;;4.80;91.30;;;;;;5069046;28;20012;-71
2021/04/05 10:20:55;;;;;;;10.60;1.70;;;5.00;91.50;;;;;;5069712;28;20028;-74
2021/04/05 10:23:24;;;;;;;8.02;2.38;;;5.10;90.50;;;;;;5070910;28;20029;-71
2021/04/05 10:26:00;;;;;;;19.55;2.55;;;4.90;90.80;;;;;;5073739;28;20029;-72
2021/04/05 10:28:31;;;;;;;18.67;3.10;;;4.90;93.80;;;;;;5074628;28;20170;-72
2021/04/05 10:31:00;;;;;;;8.65;2.55;;;4.80;94.60;;;;;;5075298;28;20504;-72
2021/04/05 10:33:31;;;;;;;15.57;2.70;;;4.60;93.20;;;;;;5061149;28;20021;-70
2021/04/05 10:36:03;;;;;;;13.95;2.20;;;4.60;95.90;;;;;;5068123;28;20550;-72
2021/04/05 10:38:29;;;;;;;11.35;2.33;;;4.50;94.90;;;;;;5070587;28;20104;-71
2021/04/05 10:40:56;;;;;;;23.38;3.05;;;4.30;91.00;;;;;;5068990;28;20028;-73
2021/04/05 10:43:51;;;;;;;9.70;2.00;;;4.40;89.20;;;;;;5065561;28;20024;-71
2021/04/05 10:46:19;;;;;;;11.13;1.98;;;4.50;90.50;;;;;;5069287;28;20054;-71
2021/04/05 10:49:04;;;;;;;14.00;2.38;;;4.70;90.00;;;;;;5067851;28;20559;-75
2021/04/05 10:51:33;;;;;;;18.13;2.05;;;4.80;90.00;;;;;;5069397;28;20039;-72
2021/04/05 10:54:09;;;;;;;7.80;2.35;;;5.00;89.50;;;;;;5068991;28;20017;-74
2021/04/05 10:56:45;;;;;;;17.55;2.17;;;4.90;87.00;;;;;;5071542;28;20020;-73
2021/04/05 10:59:32;;;;;;;19.58;2.70;;;4.90;89.20;;;;;;5067994;28;20023;-71
2021/04/05 11:02:06;;;;;;;11.98;1.95;;;4.80;90.80;;;;;;5075682;28;20035;-72
2021/04/05 11:04:34;;;;;;;17.70;2.00;;;4.70;91.70;;;;;;5070688;28;20055;-73
2021/04/05 11:07:01;;;;;;;14.52;2.53;;;5.10;92.10;;;;;;5055211;28;20032;-71
2021/04/05 11:09:28;;;;;;;8.13;1.10;;;4.90;88.30;;;;;;5070378;28;20033;-73
2021/04/05 11:11:55;;;;;;;8.05;1.90;;;4.20;98.70;;;;;;5070540;28;20659;-75
2021/04/05 11:14:24;;;;;;;8.40;2.00;;;2.10;99.90;;;;;;5064505;28;20535;-73
2021/04/05 11:16:56;;;;;;;11.13;1.13;;;1.80;99.90;;;;;;5061961;28;20373;-70
2021/04/05 11:19:51;;;;;;;6.65;2.22;;;1.90;99.90;;;;;;5064850;28;20054;-72
2021/04/05 11:22:18;;;;;;;4.97;1.23;;;2.10;99.90;;;;;;5070859;28;20435;-72
2021/04/05 11:24:45;;;;;;;8.57;1.42;;;2.90;99.90;;;;;;5067549;28;20027;-71
2021/04/05 11:27:14;;;;;;;8.75;1.67;;;3.70;99.90;;;;;;5071102;28;20028;-74
2021/04/05 11:29:47;;;;;;;12.82;1.70;;;4.10;99.90;;;;;;5068514;28;20017;-72
2021/04/05 11:32:16;;;;;;;7.20;1.33;;;4.80;99.90;;;;;;5062566;28;20034;-69
2021/04/05 11:34:53;;;;;;;9.38;1.58;;;5.30;99.90;;;;;;5073571;28;20020;-72
2021/04/05 11:37:21;;;;;;;15.32;2.58;;;5.30;99.50;;;;;;5093730;28;20008;-75
2021/04/05 11:39:58;;;;;;;20.73;2.83;;;4.80;96.00;;;;;;5087441;28;20511;-75
2021/04/05 11:42:32;;;;;;;14.48;2.60;;;4.80;94.90;;;;;;5060715;28;20044;-72
2021/04/05 11:45:02;;;;;;;8.95;1.98;;;5.30;95.40;;;;;;5071398;28;20177;-74
2021/04/05 11:47:35;;;;;;;7.45;1.48;;;5.30;94.80;;;;;;5070571;28;20102;-71
2021/04/05 11:50:11;;;;;;;7.85;1.42;;;5.20;93.90;;;;;;5067779;28;20123;-73
2021/04/05 11:52:55;;;;;;;6.68;2.20;;;5.20;92.20;;;;;;5059648;28;20075;-71
2021/04/05 11:55:29;;;;;;;9.50;1.70;;;5.50;92.50;;;;;;5069895;28;20472;-71
2021/04/05 11:58:27;;;;;;;6.20;1.35;;;5.90;92.60;;;;;;5072344;28;20159;-72
2021/04/05 12:01:00;;;;;;;11.07;1.92;;;5.80;91.90;;;;;;5075970;28;20036;-75
2021/04/05 12:03:57;;;;;;;11.00;1.73;;;5.00;93.60;;;;;;5074070;28;20073;-72
2021/04/05 12:06:31;;;;;;;16.45;2.20;;;4.70;95.50;;;;;;5071162;28;20051;-73
2021/04/05 12:09:09;;;;;;;7.60;1.75;;;4.50;97.60;;;;;;5069922;28;20020;-71
2021/04/05 12:11:52;;;;;;;13.98;1.75;;;5.00;98.00;;;;;;5060934;28;20024;-72
2021/04/05 12:14:23;;;;;;;15.85;2.33;;;5.80;94.70;;;;;;5071574;28;20050;-71
2021/04/05 12:16:52;;;;;;;12.38;1.42;;;5.90;93.10;;;;;;5072702;28;20020;-72
2021/04/05 12:19:41;;;;;;;7.72;1.27;;;5.70;90.00;;;;;;5071271;28;20029;-71
2021/04/05 12:22:10;;;;;;;3.47;1.10;;;5.40;88.00;;;;;;5072692;28;20028;-72
2021/04/05 12:24:42;;;;;;;8.75;0.82;;;5.50;81.00;;;;;;5064463;28;20025;-73
2021/04/05 12:27:10;;;;;;;5.22;0.70;;;5.40;80.60;;;;;;5093333;28;20025;-73
2021/04/05 12:29:43;;;;;;;3.80;0.93;;;5.40;80.40;;;;;;5090035;28;20012;-73
2021/04/05 12:32:19;;;;;;;6.28;0.98;;;5.30;78.50;;;;;;5085559;28;20024;-72
2021/04/05 12:34:47;;;;;;;5.72;1.02;;;5.00;80.50;;;;;;5081156;28;20065;-72
2021/04/05 12:37:17;;;;;;;8.60;1.27;;;4.90;81.80;;;;;;5066998;28;20074;-74
2021/04/05 12:39:45;;;;;;;5.65;1.50;;;4.50;99.80;;;;;;5070503;28;20392;-72
2021/04/05 12:42:12;;;;;;;6.22;1.48;;;3.10;99.90;;;;;;5075497;28;20024;-73
2021/04/05 12:44:42;;;;;;;6.25;1.95;;;2.10;99.90;;;;;;5072872;28;20028;-71
2021/04/05 12:47:10;;;;;;;6.75;2.05;;;1.60;99.90;;;;;;5076402;28;20043;-71
2021/04/05 12:49:42;;;;;;;13.75;2.17;;;1.50;99.90;;;;;;5072192;28;20055;-73
2021/04/05 12:52:17;;;;;;;8.48;2.00;;;1.30;99.90;;;;;;5072403;28;20037;-69
2021/04/05 12:54:50;;;;;;;4.55;1.48;;;1.60;99.90;;;;;;5072936;28;20029;-73
2021/04/05 12:57:23;;;;;;;;;;;1.80;99.90;;;;;;5073959;28;20029;-71
2021/04/05 12:59:48;;;;;;;14.88;1.80;;;1.90;99.90;;;;;;5071719;28;20256;-71
2021/04/05 13:02:18;;;;;;;11.68;1.92;;;1.90;99.90;;;;;;5070575;28;20119;-73
2021/04/05 13:05:14;;;;;;;9.65;1.58;;;2.00;99.90;;;;;;5070478;28;20047;-74
2021/04/05 13:07:46;;;;;;;2.22;1.17;;;2.20;99.90;;;;;;5049854;28;20475;-74
2021/04/05 13:10:24;;;;;;;7.47;1.27;;;2.20;99.90;;;;;;5066582;28;20043;-74
2021/04/05 13:12:57;;;;;;;12.02;1.60;;;2.40;99.90;;;;;;5070024;28;20682;-73
2021/04/05 13:15:33;;;;;;;10.05;1.80;;;2.50;99.90;;;;;;5072014;28;20079;-75
2021/04/05 13:18:05;;;;;;;9.07;2.00;;;2.30;99.90;;;;;;5075277;28;20008;-74
2021/04/05 13:20:37;;;;;;;4.90;1.93;;;2.30;99.90;;;;;;5073620;28;20028;-75
2021/04/05 13:23:05;;;;;;;5.75;1.77;;;2.30;99.90;;;;;;5071432;28;20093;-77
2021/04/05 13:25:37;;;;;;;8.35;1.80;;;2.00;99.90;;;;;;5076806;28;20036;-72
2021/04/05 13:28:04;;;;;;;10.13;1.77;;;2.10;99.90;;;;;;5075750;28;20112;-75